Time;durP1;ratioP1;P1;durP2;ratioP2;P2;SDS_P1;SDS_P2;PMS_P1;PMS_P2;Temp;Humidity;BMP_temperature;BMP_pressure;BME280_temperature;BME280_humidity;BME280_pressure;Samples;Min_cycle;Max_cycle;Signal;HPM_P1;HPM_P2
2023/05/08 00:02:13;;;;;;;2.20;2.10;;;;;;;;;;5045100;28;20209;-26
2023/05/08 00:04:40;;;;;;;2.43;2.20;;;;;;;;;;5045036;28;20222;-27
2023/05/08 00:07:07;;;;;;;2.20;1.97;;;;;;;;;;5054766;28;20229;-29
2023/05/08 00:09:34;;;;;;;2.00;1.90;;;;;;;;;;5048117;28;20216;-26
2023/05/08 00:12:01;;;;;;;2.30;2.10;;;;;;;;;;5053273;28;20202;-26
2023/05/08 00:14:29;;;;;;;1.77;1.67;;;;;;;;;;5043809;28;20204;-27
2023/05/08 00:16:56;;;;;;;3.63;2.20;;;;;;;;;;5061481;28;20230;-27
2023/05/08 00:19:23;;;;;;;5.13;2.17;;;;;;;;;;5044441;28;20206;-29
2023/05/08 00:21:51;;;;;;;3.00;2.70;;;;;;;;;;5034084;28;20211;-28
2023/05/08 00:24:18;;;;;;;2.73;2.53;;;;;;;;;;5036805;28;20218;-31
2023/05/08 00:26:45;;;;;;;5.07;2.70;;;;;;;;;;5039381;28;20229;-28
2023/05/08 00:29:12;;;;;;;3.43;2.60;;;;;;;;;;5032578;28;20212;-27
2023/05/08 00:31:41;;;;;;;2.10;2.00;;;;;;;;;;5043456;28;20214;-27
2023/05/08 00:34:08;;;;;;;2.53;2.33;;;;;;;;;;5035084;28;20202;-30
2023/05/08 00:36:35;;;;;;;2.23;2.10;;;;;;;;;;5031865;28;20222;-28
2023/05/08 00:39:02;;;;;;;2.17;2.07;;;;;;;;;;5037227;28;20212;-25
2023/05/08 00:41:29;;;;;;;2.60;2.40;;;;;;;;;;5040862;28;20229;-28
2023/05/08 00:43:57;;;;;;;3.03;2.50;;;;;;;;;;5036085;28;20212;-28
2023/05/08 00:46:24;;;;;;;2.47;2.27;;;;;;;;;;5040667;28;20226;-29
2023/05/08 00:48:52;;;;;;;2.50;2.30;;;;;;;;;;5030839;28;20199;-29
2023/05/08 00:51:19;;;;;;;3.23;2.00;;;;;;;;;;5031635;28;20231;-27
2023/05/08 00:53:46;;;;;;;2.20;2.00;;;;;;;;;;5030166;28;20210;-30
2023/05/08 00:56:15;;;;;;;2.40;1.90;;;;;;;;;;5055565;28;20244;-28
2023/05/08 00:58:43;;;;;;;3.67;2.40;;;;;;;;;;5046289;28;20309;-26
2023/05/08 01:01:11;;;;;;;4.13;2.27;;;;;;;;;;5046452;28;20208;-28
2023/05/08 01:03:38;;;;;;;2.60;2.40;;;;;;;;;;5041904;28;20226;-30
2023/05/08 01:06:07;;;;;;;2.40;2.30;;;;;;;;;;5049931;28;20237;-32
2023/05/08 01:08:35;;;;;;;2.43;2.10;;;;;;;;;;5050653;28;20289;-29
2023/05/08 01:11:06;;;;;;;2.17;2.07;;;;;;;;;;5046878;28;20268;-29
2023/05/08 01:13:40;;;;;;;4.13;2.30;;;;;;;;;;5042495;28;20199;-30
2023/05/08 01:16:10;;;;;;;2.10;1.90;;;;;;;;;;5040671;28;20252;-28
2023/05/08 01:18:39;;;;;;;2.60;2.00;;;;;;;;;;5041906;28;20221;-28
2023/05/08 01:21:13;;;;;;;5.20;2.23;;;;;;;;;;5041092;28;20207;-29
2023/05/08 01:23:55;;;;;;;2.63;2.43;;;;;;;;;;5037597;28;20209;-26
2023/05/08 01:26:40;;;;;;;2.60;2.33;;;;;;;;;;5040704;28;20244;-28
2023/05/08 01:29:24;;;;;;;2.30;2.20;;;;;;;;;;5032257;28;20659;-29
2023/05/08 01:31:53;;;;;;;2.40;2.30;;;;;;;;;;5044422;28;20213;-27
2023/05/08 01:34:24;;;;;;;2.83;2.63;;;;;;;;;;5049023;28;20350;-30
2023/05/08 01:36:53;;;;;;;4.67;2.90;;;;;;;;;;5030528;28;20277;-26
2023/05/08 01:39:22;;;;;;;2.77;2.50;;;;;;;;;;5031110;28;20206;-29
2023/05/08 01:41:52;;;;;;;2.83;2.60;;;;;;;;;;5044370;28;20667;-27
2023/05/08 01:44:20;;;;;;;3.53;3.10;;;;;;;;;;5044020;28;20205;-29
2023/05/08 01:46:49;;;;;;;4.60;3.13;;;;;;;;;;5052112;28;20225;-26
2023/05/08 01:49:22;;;;;;;3.27;2.97;;;;;;;;;;5044542;28;20202;-29
2023/05/08 01:51:54;;;;;;;3.40;2.60;;;;;;;;;;5031035;28;20206;-28
2023/05/08 01:54:23;;;;;;;3.83;2.60;;;;;;;;;;5032838;28;20206;-29
2023/05/08 01:56:51;;;;;;;3.27;2.70;;;;;;;;;;5042965;28;20226;-27
2023/05/08 01:59:20;;;;;;;3.33;2.23;;;;;;;;;;5036000;28;20212;-28
2023/05/08 02:01:48;;;;;;;2.00;1.90;;;;;;;;;;5039586;28;20303;-27
2023/05/08 02:04:16;;;;;;;2.63;1.83;;;;;;;;;;5040619;28;20214;-28
2023/05/08 02:06:44;;;;;;;3.33;2.37;;;;;;;;;;5049450;28;20237;-29
2023/05/08 02:09:12;;;;;;;2.70;2.50;;;;;;;;;;5045834;28;20653;-31
2023/05/08 02:11:41;;;;;;;2.90;2.47;;;;;;;;;;5037306;28;20280;-29
2023/05/08 02:14:09;;;;;;;3.43;2.20;;;;;;;;;;5031296;28;20202;-32
2023/05/08 02:16:38;;;;;;;7.40;2.70;;;;;;;;;;5044105;28;20218;-27
2023/05/08 02:19:06;;;;;;;2.67;2.30;;;;;;;;;;5041348;28;20209;-28
2023/05/08 02:21:34;;;;;;;2.53;2.33;;;;;;;;;;5037881;28;20206;-28
2023/05/08 02:24:02;;;;;;;3.20;2.47;;;;;;;;;;5035912;28;20222;-28
2023/05/08 02:26:31;;;;;;;8.23;2.50;;;;;;;;;;5038480;28;20276;-29
2023/05/08 02:28:59;;;;;;;2.93;2.40;;;;;;;;;;5028380;28;20680;-30
2023/05/08 02:31:26;;;;;;;2.57;2.30;;;;;;;;;;5043619;28;20656;-27
2023/05/08 02:33:54;;;;;;;2.60;2.40;;;;;;;;;;5040437;28;20198;-26
2023/05/08 02:36:22;;;;;;;3.03;2.43;;;;;;;;;;5047814;28;20218;-26
2023/05/08 02:38:51;;;;;;;3.93;2.80;;;;;;;;;;5046952;28;20217;-28
2023/05/08 02:41:20;;;;;;;4.70;3.00;;;;;;;;;;5048750;28;20202;-25
2023/05/08 02:43:48;;;;;;;3.50;2.40;;;;;;;;;;5049121;28;20210;-28
2023/05/08 02:46:18;;;;;;;5.00;2.90;;;;;;;;;;5034264;28;20234;-28
2023/05/08 02:48:51;;;;;;;2.57;2.37;;;;;;;;;;5044800;28;20266;-28
2023/05/08 02:51:21;;;;;;;2.20;2.00;;;;;;;;;;5029504;28;20202;-29
2023/05/08 02:53:51;;;;;;;2.30;2.20;;;;;;;;;;5052243;28;20232;-28
2023/05/08 02:56:21;;;;;;;3.07;2.57;;;;;;;;;;5038420;28;20222;-31
2023/05/08 02:58:55;;;;;;;3.70;3.00;;;;;;;;;;5042199;28;20240;-30
2023/05/08 03:01:27;;;;;;;3.03;2.80;;;;;;;;;;5050866;28;20232;-30
2023/05/08 03:03:59;;;;;;;3.20;2.93;;;;;;;;;;5047633;28;20191;-28
2023/05/08 03:06:27;;;;;;;4.77;2.70;;;;;;;;;;5034389;28;20230;-29
2023/05/08 03:08:57;;;;;;;2.87;2.63;;;;;;;;;;5054867;28;20202;-26
2023/05/08 03:11:27;;;;;;;3.40;2.30;;;;;;;;;;5041288;28;20210;-26
2023/05/08 03:13:57;;;;;;;2.27;2.17;;;;;;;;;;5029782;28;20211;-28
2023/05/08 03:16:25;;;;;;;3.50;2.77;;;;;;;;;;5048425;28;20225;-28
2023/05/08 03:18:54;;;;;;;3.67;2.50;;;;;;;;;;5052011;28;20206;-30
2023/05/08 03:21:22;;;;;;;2.93;2.73;;;;;;;;;;5035004;28;20203;-30
2023/05/08 03:23:50;;;;;;;4.87;3.33;;;;;;;;;;5036862;28;20218;-28
2023/05/08 03:26:19;;;;;;;2.90;2.53;;;;;;;;;;5055128;28;20226;-28
2023/05/08 03:28:47;;;;;;;2.70;2.50;;;;;;;;;;5040378;28;20289;-30
2023/05/08 03:31:17;;;;;;;2.40;2.20;;;;;;;;;;5049146;28;20236;-29
2023/05/08 03:33:44;;;;;;;3.20;2.90;;;;;;;;;;5044035;28;20225;-29
2023/05/08 03:36:12;;;;;;;5.50;3.30;;;;;;;;;;5050987;28;20229;-29
2023/05/08 03:38:39;;;;;;;5.47;3.07;;;;;;;;;;5038259;28;20206;-29
2023/05/08 03:41:07;;;;;;;3.80;3.50;;;;;;;;;;5042452;28;20203;-26
2023/05/08 03:43:34;;;;;;;3.33;3.03;;;;;;;;;;5034359;28;20209;-29
2023/05/08 03:46:01;;;;;;;4.57;3.20;;;;;;;;;;5051271;28;20477;-27
2023/05/08 03:48:31;;;;;;;4.90;3.03;;;;;;;;;;5041334;28;20214;-27
2023/05/08 03:50:59;;;;;;;2.97;2.70;;;;;;;;;;5032343;28;20213;-27
2023/05/08 03:53:26;;;;;;;2.97;2.70;;;;;;;;;;5045755;28;20206;-30
2023/05/08 03:55:53;;;;;;;3.60;3.30;;;;;;;;;;5051384;28;20218;-26
2023/05/08 03:58:24;;;;;;;3.57;3.17;;;;;;;;;;5051636;28;20212;-26
2023/05/08 04:00:59;;;;;;;3.40;3.10;;;;;;;;;;5042001;28;20202;-27
2023/05/08 04:03:33;;;;;;;3.53;3.23;;;;;;;;;;5042665;28;20217;-28
2023/05/08 04:06:07;;;;;;;6.00;3.17;;;;;;;;;;5050958;28;20566;-26
2023/05/08 04:08:41;;;;;;;3.80;3.40;;;;;;;;;;5048890;28;20205;-27
2023/05/08 04:11:12;;;;;;;3.77;3.37;;;;;;;;;;5044059;28;20216;-30
2023/05/08 04:13:43;;;;;;;5.70;3.40;;;;;;;;;;5044907;28;20217;-28
2023/05/08 04:16:14;;;;;;;4.70;3.90;;;;;;;;;;5037829;28;20218;-26
2023/05/08 04:18:47;;;;;;;3.83;3.53;;;;;;;;;;5039624;28;20207;-30
2023/05/08 04:21:17;;;;;;;3.70;3.17;;;;;;;;;;5032041;28;20211;-29
2023/05/08 04:23:44;;;;;;;3.60;3.20;;;;;;;;;;5037176;28;20201;-30
2023/05/08 04:26:13;;;;;;;3.67;3.33;;;;;;;;;;5058680;28;20709;-30
2023/05/08 04:28:41;;;;;;;3.73;3.43;;;;;;;;;;5051207;28;20202;-27
2023/05/08 04:31:08;;;;;;;3.97;3.57;;;;;;;;;;5042914;28;20214;-30
2023/05/08 04:33:35;;;;;;;6.30;3.47;;;;;;;;;;5039149;28;20203;-29
2023/05/08 04:36:03;;;;;;;4.67;3.80;;;;;;;;;;5038711;28;20223;-27
2023/05/08 04:38:31;;;;;;;5.67;4.10;;;;;;;;;;5037873;28;20206;-29
2023/05/08 04:40:58;;;;;;;3.60;3.30;;;;;;;;;;5032803;28;20207;-26
2023/05/08 04:43:26;;;;;;;4.33;2.83;;;;;;;;;;5034477;28;20209;-27
2023/05/08 04:45:53;;;;;;;4.23;3.40;;;;;;;;;;5035190;28;20578;-26
2023/05/08 04:48:20;;;;;;;3.70;3.40;;;;;;;;;;5044401;28;20216;-28
2023/05/08 04:50:47;;;;;;;4.00;3.60;;;;;;;;;;5053321;28;20571;-27
2023/05/08 04:53:14;;;;;;;3.70;3.40;;;;;;;;;;5052835;28;20210;-27
2023/05/08 04:55:43;;;;;;;4.17;3.60;;;;;;;;;;5044208;28;20222;-26
2023/05/08 04:58:11;;;;;;;3.53;3.23;;;;;;;;;;5036939;28;20209;-27
2023/05/08 05:00:38;;;;;;;4.23;3.83;;;;;;;;;;5054064;28;20206;-28
2023/05/08 05:03:05;;;;;;;3.70;3.40;;;;;;;;;;5052541;28;20215;-30
2023/05/08 05:05:32;;;;;;;5.40;3.50;;;;;;;;;;5032200;28;20226;-28
2023/05/08 05:07:59;;;;;;;3.47;3.17;;;;;;;;;;5032744;28;20210;-25
2023/05/08 05:10:26;;;;;;;3.67;3.33;;;;;;;;;;5052506;28;20202;-25
2023/05/08 05:12:55;;;;;;;3.80;3.50;;;;;;;;;;5032969;28;20208;-29
2023/05/08 05:15:22;;;;;;;3.23;2.60;;;;;;;;;;5045773;28;20230;-28
2023/05/08 05:17:49;;;;;;;3.03;2.77;;;;;;;;;;5047991;28;20293;-27
2023/05/08 05:20:16;;;;;;;3.33;3.10;;;;;;;;;;5053215;28;20212;-27
2023/05/08 05:22:44;;;;;;;3.60;2.87;;;;;;;;;;5052476;28;20206;-29
2023/05/08 05:25:11;;;;;;;3.07;2.77;;;;;;;;;;5048927;28;20226;-26
2023/05/08 05:27:44;;;;;;;3.40;2.97;;;;;;;;;;5052343;28;20264;-27
2023/05/08 05:30:13;;;;;;;2.80;2.60;;;;;;;;;;5049174;28;20197;-28
2023/05/08 05:32:41;;;;;;;3.47;3.17;;;;;;;;;;5051602;28;20215;-27
2023/05/08 05:35:09;;;;;;;4.43;3.17;;;;;;;;;;5455738;22;20204;-29
2023/05/08 05:37:39;;;;;;;3.47;3.13;;;;;;;;;;5088870;28;20568;-26
2023/05/08 05:40:07;;;;;;;3.63;3.27;;;;;;;;;;5073762;28;20201;-29
2023/05/08 05:42:35;;;;;;;3.90;3.53;;;;;;;;;;5079996;28;20211;-27
2023/05/08 05:45:02;;;;;;;3.93;3.10;;;;;;;;;;5082491;28;20208;-27
2023/05/08 05:47:34;;;;;;;2.83;2.63;;;;;;;;;;5066099;28;20221;-27
2023/05/08 05:50:01;;;;;;;4.23;3.20;;;;;;;;;;5060435;28;20212;-27
2023/05/08 05:52:28;;;;;;;3.53;3.23;;;;;;;;;;5075522;28;20651;-30
2023/05/08 05:54:55;;;;;;;4.83;4.43;;;;;;;;;;5058485;28;20226;-28
2023/05/08 05:57:22;;;;;;;4.50;4.10;;;;;;;;;;5050316;28;20212;-27
2023/05/08 05:59:50;;;;;;;6.47;5.00;;;;;;;;;;5057457;28;20208;-27
2023/05/08 06:02:19;;;;;;;3.77;3.47;;;;;;;;;;5065635;28;20206;-29
2023/05/08 06:04:48;;;;;;;4.60;4.20;;;;;;;;;;5050162;28;20289;-28
2023/05/08 06:07:16;;;;;;;4.77;4.33;;;;;;;;;;5057536;28;20253;-27
2023/05/08 06:09:43;;;;;;;3.90;3.60;;;;;;;;;;5063433;28;20202;-30
2023/05/08 06:12:11;;;;;;;3.83;3.53;;;;;;;;;;5062818;28;20641;-30
2023/05/08 06:14:38;;;;;;;4.77;3.87;;;;;;;;;;5067342;28;20232;-29
2023/05/08 06:17:05;;;;;;;3.80;3.47;;;;;;;;;;5067204;28;20225;-27
2023/05/08 06:19:32;;;;;;;3.90;3.57;;;;;;;;;;5060441;28;20205;-30
2023/05/08 06:22:00;;;;;;;3.37;3.07;;;;;;;;;;5068116;28;20654;-26
2023/05/08 06:24:27;;;;;;;7.10;3.67;;;;;;;;;;5070011;28;20236;-28
2023/05/08 06:26:55;;;;;;;3.90;3.60;;;;;;;;;;5062844;28;20228;-29
2023/05/08 06:29:22;;;;;;;3.80;3.50;;;;;;;;;;5067617;28;20239;-28
2023/05/08 06:31:49;;;;;;;3.73;3.43;;;;;;;;;;5063879;28;20202;-28
2023/05/08 06:34:16;;;;;;;3.73;3.33;;;;;;;;;;5061393;28;20194;-27
2023/05/08 06:36:44;;;;;;;3.43;3.23;;;;;;;;;;5053854;28;20237;-30
2023/05/08 06:39:12;;;;;;;4.30;3.40;;;;;;;;;;5066098;28;20205;-28
2023/05/08 06:41:39;;;;;;;3.67;3.37;;;;;;;;;;5077784;28;20559;-29
2023/05/08 06:44:06;;;;;;;5.03;3.30;;;;;;;;;;5068875;28;20268;-29
2023/05/08 06:46:33;;;;;;;5.13;3.97;;;;;;;;;;5070096;28;20266;-26
2023/05/08 06:49:00;;;;;;;6.63;3.97;;;;;;;;;;5064955;28;20429;-26
2023/05/08 06:51:27;;;;;;;5.20;3.83;;;;;;;;;;5073516;28;20209;-29
2023/05/08 06:53:55;;;;;;;4.40;4.00;;;;;;;;;;5063457;28;20202;-28
2023/05/08 06:56:23;;;;;;;4.50;4.10;;;;;;;;;;5068610;28;20232;-29
2023/05/08 06:58:50;;;;;;;5.17;4.60;;;;;;;;;;5068427;28;20221;-30
2023/05/08 07:01:17;;;;;;;6.57;5.67;;;;;;;;;;5065208;28;20201;-28
2023/05/08 07:03:48;;;;;;;6.73;4.47;;;;;;;;;;5053764;28;20198;-28
2023/05/08 07:06:15;;;;;;;8.13;5.53;;;;;;;;;;5056312;28;20677;-29
2023/05/08 07:08:42;;;;;;;8.53;5.83;;;;;;;;;;5058415;28;20209;-28
2023/05/08 07:11:09;;;;;;;9.80;6.40;;;;;;;;;;5058602;28;20217;-28
2023/05/08 07:13:38;;;;;;;8.33;6.30;;;;;;;;;;5071336;28;20254;-27
2023/05/08 07:16:09;;;;;;;6.47;5.77;;;;;;;;;;5061852;28;20220;-28
2023/05/08 07:18:36;;;;;;;10.00;7.60;;;;;;;;;;5063723;28;20201;-31
2023/05/08 07:21:04;;;;;;;8.53;6.50;;;;;;;;;;5063745;28;20202;-26
2023/05/08 07:23:31;;;;;;;8.80;7.70;;;;;;;;;;5063809;28;20201;-30
2023/05/08 07:25:58;;;;;;;10.30;7.80;;;;;;;;;;5063604;28;20530;-29
2023/05/08 07:28:25;;;;;;;10.47;8.57;;;;;;;;;;5053978;28;20291;-27
2023/05/08 07:30:54;;;;;;;13.47;8.07;;;;;;;;;;5059682;28;20201;-27
2023/05/08 07:33:22;;;;;;;7.57;6.80;;;;;;;;;;5064168;28;20300;-28
2023/05/08 07:35:50;;;;;;;12.07;8.93;;;;;;;;;;5077161;28;20237;-27
2023/05/08 07:38:17;;;;;;;9.13;8.00;;;;;;;;;;5064155;28;20197;-29
2023/05/08 07:40:44;;;;;;;11.40;8.27;;;;;;;;;;5071842;28;20296;-29
2023/05/08 07:43:12;;;;;;;12.23;8.77;;;;;;;;;;5062442;28;20212;-29
2023/05/08 07:45:39;;;;;;;9.33;8.17;;;;;;;;;;5060119;28;20251;-31
2023/05/08 07:48:08;;;;;;;13.27;9.30;;;;;;;;;;5060587;28;20256;-27
2023/05/08 07:50:35;;;;;;;14.07;9.37;;;;;;;;;;5051968;28;20568;-28
2023/05/08 07:53:02;;;;;;;12.23;9.47;;;;;;;;;;5065888;28;20258;-29
2023/05/08 07:55:29;;;;;;;11.30;8.90;;;;;;;;;;5064178;28;20237;-27
2023/05/08 07:57:57;;;;;;;10.93;8.17;;;;;;;;;;5071156;28;20206;-29
2023/05/08 08:00:26;;;;;;;9.67;8.10;;;;;;;;;;5068361;28;20212;-28
2023/05/08 08:02:53;;;;;;;11.80;9.03;;;;;;;;;;5061001;28;20204;-26
2023/05/08 08:05:24;;;;;;;12.30;9.43;;;;;;;;;;5072094;28;20225;-29
2023/05/08 08:08:03;;;;;;;11.60;9.63;;;;;;;;;;5073616;28;20275;-27
2023/05/08 08:10:34;;;;;;;9.80;8.13;;;;;;;;;;5077336;28;20212;-29
2023/05/08 08:13:09;;;;;;;12.00;8.83;;;;;;;;;;5071997;28;20194;-29
2023/05/08 08:15:42;;;;;;;10.83;9.73;;;;;;;;;;5069515;28;20228;-29
2023/05/08 08:18:09;;;;;;;10.50;9.20;;;;;;;;;;5073218;28;20353;-29
2023/05/08 08:20:44;;;;;;;11.50;9.33;;;;;;;;;;5073685;28;20205;-28
2023/05/08 08:23:12;;;;;;;12.20;9.90;;;;;;;;;;5071749;28;20207;-28
2023/05/08 08:25:41;;;;;;;14.07;10.57;;;;;;;;;;5074520;28;20288;-29
2023/05/08 08:28:08;;;;;;;14.40;10.83;;;;;;;;;;5065373;28;20276;-30
2023/05/08 08:30:35;;;;;;;11.13;9.57;;;;;;;;;;5059599;28;20213;-27
2023/05/08 08:33:05;;;;;;;12.87;10.17;;;;;;;;;;5053297;28;20210;-29
2023/05/08 08:35:33;;;;;;;11.13;9.27;;;;;;;;;;5051887;28;20614;-27
2023/05/08 08:38:02;;;;;;;13.07;10.70;;;;;;;;;;5058796;28;20214;-27
2023/05/08 08:40:51;;;;;;;13.90;10.97;;;;;;;;;;5074840;28;20681;-30
2023/05/08 08:43:20;;;;;;;11.90;10.67;;;;;;;;;;5052600;28;20665;-28
2023/05/08 08:45:49;;;;;;;11.40;9.57;;;;;;;;;;5065630;28;20300;-28
2023/05/08 08:48:22;;;;;;;13.43;10.23;;;;;;;;;;5072135;28;20225;-27
2023/05/08 08:51:06;;;;;;;12.17;10.20;;;;;;;;;;5053655;28;20294;-27
2023/05/08 08:53:58;;;;;;;15.03;12.47;;;;;;;;;;5061931;28;20632;-29
2023/05/08 08:56:36;;;;;;;14.63;10.33;;;;;;;;;;5063436;28;20229;-28
2023/05/08 08:59:08;;;;;;;15.97;10.67;;;;;;;;;;5056855;28;20280;-29
2023/05/08 09:01:40;;;;;;;12.87;11.37;;;;;;;;;;5068354;28;20221;-28
2023/05/08 09:04:08;;;;;;;14.13;11.20;;;;;;;;;;5060958;28;20198;-26
2023/05/08 09:06:39;;;;;;;15.43;10.30;;;;;;;;;;5053389;28;20232;-28
2023/05/08 09:09:22;;;;;;;14.97;11.50;;;;;;;;;;5064324;28;20208;-27
2023/05/08 09:11:52;;;;;;;12.33;10.47;;;;;;;;;;5064444;28;20244;-28
2023/05/08 09:14:19;;;;;;;15.40;9.53;;;;;;;;;;5067547;28;20205;-26
2023/05/08 09:16:47;;;;;;;10.97;9.63;;;;;;;;;;5064845;28;20217;-26
2023/05/08 09:19:15;;;;;;;12.33;10.43;;;;;;;;;;5067441;28;20208;-26
2023/05/08 09:21:43;;;;;;;10.97;9.87;;;;;;;;;;5071122;28;20217;-30
2023/05/08 09:24:12;;;;;;;11.70;9.53;;;;;;;;;;5065579;28;20208;-29
2023/05/08 09:26:42;;;;;;;11.07;9.43;;;;;;;;;;5072765;28;20221;-28
2023/05/08 09:29:14;;;;;;;11.77;9.80;;;;;;;;;;5069779;28;20241;-29
2023/05/08 09:31:45;;;;;;;11.00;9.53;;;;;;;;;;5063698;28;20675;-27
2023/05/08 09:34:26;;;;;;;10.83;9.73;;;;;;;;;;5051920;28;20210;-28
2023/05/08 09:36:54;;;;;;;9.67;8.70;;;;;;;;;;5052315;28;20268;-28
2023/05/08 09:39:24;;;;;;;11.37;9.80;;;;;;;;;;5056236;28;20214;-29
2023/05/08 09:42:01;;;;;;;10.70;9.60;;;;;;;;;;5064683;28;20206;-30
2023/05/08 09:44:30;;;;;;;11.87;8.43;;;;;;;;;;5058945;28;20654;-27
2023/05/08 09:47:11;;;;;;;11.27;9.93;;;;;;;;;;5073668;28;20225;-27
2023/05/08 09:49:39;;;;;;;12.30;10.27;;;;;;;;;;5068324;28;20530;-26
2023/05/08 09:52:09;;;;;;;12.10;10.80;;;;;;;;;;5066800;28;20304;-27
2023/05/08 09:54:39;;;;;;;10.63;9.37;;;;;;;;;;5066338;28;20201;-27
2023/05/08 09:57:15;;;;;;;14.20;10.80;;;;;;;;;;5055329;28;20326;-27
2023/05/08 09:59:46;;;;;;;18.30;10.40;;;;;;;;;;5056666;28;20593;-27
2023/05/08 10:02:16;;;;;;;11.47;9.53;;;;;;;;;;5073747;28;20665;-27
2023/05/08 10:04:44;;;;;;;11.63;10.43;;;;;;;;;;5071300;28;20293;-26
2023/05/08 10:07:14;;;;;;;11.13;9.37;;;;;;;;;;5071865;28;20227;-29
2023/05/08 10:09:58;;;;;;;11.60;10.33;;;;;;;;;;5050187;28;20213;-28
2023/05/08 10:12:29;;;;;;;12.77;10.47;;;;;;;;;;5073550;28;20213;-29
2023/05/08 10:14:58;;;;;;;11.73;9.07;;;;;;;;;;5067662;28;20206;-28
2023/05/08 10:17:28;;;;;;;11.03;9.90;;;;;;;;;;5063955;28;20201;-26
2023/05/08 10:20:00;;;;;;;11.97;10.10;;;;;;;;;;5071633;28;20294;-27
2023/05/08 10:22:29;;;;;;;11.93;9.90;;;;;;;;;;5071075;28;20210;-25
2023/05/08 10:24:58;;;;;;;12.97;9.87;;;;;;;;;;5062480;28;20734;-29
2023/05/08 10:27:31;;;;;;;11.17;8.50;;;;;;;;;;5066403;28;20226;-27
2023/05/08 10:30:02;;;;;;;10.73;8.13;;;;;;;;;;5065791;28;20203;-29
2023/05/08 10:32:32;;;;;;;9.43;8.53;;;;;;;;;;5069309;28;20248;-31
2023/05/08 10:35:00;;;;;;;10.67;8.00;;;;;;;;;;5057279;28;20273;-32
2023/05/08 10:37:29;;;;;;;9.40;8.50;;;;;;;;;;5051373;28;20665;-30
2023/05/08 10:39:58;;;;;;;9.13;7.93;;;;;;;;;;5058074;28;20226;-29
2023/05/08 10:42:26;;;;;;;10.23;8.43;;;;;;;;;;5052958;28;20205;-30
2023/05/08 10:44:54;;;;;;;9.43;7.97;;;;;;;;;;5066770;28;20205;-31
2023/05/08 10:47:25;;;;;;;9.33;8.43;;;;;;;;;;5072465;28;20259;-29
2023/05/08 10:49:58;;;;;;;9.23;8.13;;;;;;;;;;5065753;28;20216;-30
2023/05/08 10:52:30;;;;;;;9.37;7.87;;;;;;;;;;5064942;28;20203;-33
2023/05/08 10:55:06;;;;;;;9.10;8.20;;;;;;;;;;5059916;28;20201;-29
2023/05/08 10:57:33;;;;;;;9.73;8.33;;;;;;;;;;5070345;28;20197;-30
2023/05/08 11:00:00;;;;;;;10.23;8.53;;;;;;;;;;5060518;28;20731;-29
2023/05/08 11:02:30;;;;;;;11.83;9.23;;;;;;;;;;5070743;28;20209;-29
2023/05/08 11:05:14;;;;;;;8.77;7.87;;;;;;;;;;5065109;28;20203;-28
2023/05/08 11:07:54;;;;;;;8.47;7.57;;;;;;;;;;5070999;28;20226;-31
2023/05/08 11:10:21;;;;;;;7.37;6.67;;;;;;;;;;5068477;28;20197;-31
2023/05/08 11:12:49;;;;;;;9.93;8.20;;;;;;;;;;5061960;28;20213;-30
2023/05/08 11:15:17;;;;;;;8.13;7.23;;;;;;;;;;5063134;28;20226;-29
2023/05/08 11:17:54;;;;;;;7.93;7.13;;;;;;;;;;5070735;28;20213;-31
2023/05/08 11:20:24;;;;;;;8.67;7.87;;;;;;;;;;5058243;28;20194;-29
2023/05/08 11:22:51;;;;;;;8.83;7.93;;;;;;;;;;5073390;28;20618;-31
2023/05/08 11:25:19;;;;;;;9.13;7.53;;;;;;;;;;5073170;28;20244;-29
2023/05/08 11:28:04;;;;;;;8.80;7.90;;;;;;;;;;5062231;28;20227;-31
2023/05/08 11:30:38;;;;;;;10.07;9.10;;;;;;;;;;5067990;28;20201;-30
2023/05/08 11:33:16;;;;;;;10.53;8.50;;;;;;;;;;5062790;28;20211;-32
2023/05/08 11:38:20;;;;;;;9.73;8.77;;;;;;;;;;5174921;22;20228;-32
2023/05/08 11:40:48;;;;;;;9.93;8.93;;;;;;;;;;5074784;28;20205;-29
2023/05/08 11:43:25;;;;;;;9.30;8.40;;;;;;;;;;5073905;28;20633;-31
2023/05/08 11:45:53;;;;;;;10.67;9.57;;;;;;;;;;5057234;28;20225;-32
2023/05/08 11:48:22;;;;;;;9.73;8.37;;;;;;;;;;5053310;28;20234;-32
2023/05/08 11:50:50;;;;;;;9.13;7.90;;;;;;;;;;5043456;28;20202;-32
2023/05/08 11:53:17;;;;;;;9.87;8.97;;;;;;;;;;5036144;28;20300;-31
2023/05/08 11:55:45;;;;;;;10.43;8.57;;;;;;;;;;5034708;28;20230;-33
2023/05/08 11:58:12;;;;;;;11.43;9.50;;;;;;;;;;5034175;28;20222;-33
2023/05/08 12:00:43;;;;;;;11.10;9.93;;;;;;;;;;5047038;28;20209;-32
2023/05/08 12:03:12;;;;;;;10.47;9.33;;;;;;;;;;5037889;28;20217;-32
2023/05/08 12:05:40;;;;;;;9.60;8.73;;;;;;;;;;5054036;28;20261;-33
2023/05/08 12:08:08;;;;;;;11.60;9.70;;;;;;;;;;5054467;28;20229;-30
2023/05/08 12:10:40;;;;;;;15.00;9.37;;;;;;;;;;5049622;28;20221;-31
2023/05/08 12:13:16;;;;;;;11.53;10.27;;;;;;;;;;5042356;28;20242;-34
2023/05/08 12:15:43;;;;;;;12.87;9.87;;;;;;;;;;5037444;28;20287;-32
2023/05/08 12:18:10;;;;;;;8.60;7.80;;;;;;;;;;5044187;28;20208;-33
2023/05/08 12:20:37;;;;;;;11.07;9.87;;;;;;;;;;5034540;28;20211;-31
2023/05/08 12:23:07;;;;;;;9.37;8.40;;;;;;;;;;5035547;28;20660;-31
2023/05/08 12:25:34;;;;;;;11.93;8.63;;;;;;;;;;5050809;28;20619;-31
2023/05/08 12:28:01;;;;;;;11.07;8.73;;;;;;;;;;5038928;28;20199;-30
2023/05/08 12:30:29;;;;;;;11.20;10.00;;;;;;;;;;5039853;28;20211;-33
2023/05/08 12:32:56;;;;;;;12.57;9.07;;;;;;;;;;5052360;28;20208;-33
2023/05/08 12:35:23;;;;;;;11.07;9.43;;;;;;;;;;5053336;28;20222;-30
2023/05/08 12:37:52;;;;;;;10.70;9.60;;;;;;;;;;5049986;28;20236;-34
2023/05/08 12:40:28;;;;;;;11.93;9.17;;;;;;;;;;5050804;28;20229;-31
2023/05/08 12:42:55;;;;;;;10.20;9.20;;;;;;;;;;5039321;28;20207;-32
2023/05/08 12:45:23;;;;;;;10.03;8.13;;;;;;;;;;5040799;28;20241;-33
2023/05/08 12:47:50;;;;;;;11.20;8.63;;;;;;;;;;5040114;28;20206;-30
2023/05/08 12:50:19;;;;;;;9.83;8.83;;;;;;;;;;5033477;28;20593;-30
2023/05/08 12:52:47;;;;;;;9.13;8.20;;;;;;;;;;5036111;28;20209;-32
2023/05/08 12:55:24;;;;;;;8.90;7.97;;;;;;;;;;5052670;28;20227;-32
2023/05/08 12:57:59;;;;;;;10.67;9.03;;;;;;;;;;5040095;28;20202;-31
2023/05/08 13:00:26;;;;;;;10.53;9.20;;;;;;;;;;5036148;28;20300;-34
2023/05/08 13:02:56;;;;;;;9.10;8.20;;;;;;;;;;5050369;28;20202;-34
2023/05/08 13:05:24;;;;;;;14.67;8.77;;;;;;;;;;5052797;28;20229;-33
2023/05/08 13:07:51;;;;;;;9.03;8.13;;;;;;;;;;5051980;28;20209;-32
2023/05/08 13:10:18;;;;;;;10.03;8.87;;;;;;;;;;5040426;28;20238;-31
2023/05/08 13:12:46;;;;;;;10.03;9.03;;;;;;;;;;5045664;28;20205;-32
2023/05/08 13:15:14;;;;;;;13.33;8.97;;;;;;;;;;5042839;28;20230;-32
2023/05/08 13:17:41;;;;;;;10.43;8.60;;;;;;;;;;5034288;28;20210;-34
2023/05/08 13:20:09;;;;;;;9.43;8.40;;;;;;;;;;5033164;28;20211;-31
2023/05/08 13:22:37;;;;;;;9.63;8.63;;;;;;;;;;5051423;28;20206;-34
2023/05/08 13:25:07;;;;;;;11.30;9.40;;;;;;;;;;5038952;28;20734;-30
2023/05/08 13:27:34;;;;;;;12.33;9.40;;;;;;;;;;5048641;28;20202;-36
2023/05/08 13:30:01;;;;;;;10.23;9.20;;;;;;;;;;5034574;28;20222;-32
2023/05/08 13:32:30;;;;;;;11.33;10.10;;;;;;;;;;5032018;28;20262;-31
2023/05/08 13:34:57;;;;;;;10.67;9.27;;;;;;;;;;5031370;28;20208;-32
2023/05/08 13:37:24;;;;;;;14.53;8.50;;;;;;;;;;5034859;28;20215;-30
2023/05/08 13:39:51;;;;;;;10.80;9.37;;;;;;;;;;5044363;28;20210;-33
2023/05/08 13:42:19;;;;;;;10.90;8.70;;;;;;;;;;5048036;28;20212;-33
2023/05/08 13:44:46;;;;;;;12.43;9.73;;;;;;;;;;5038267;28;20223;-31
2023/05/08 13:47:13;;;;;;;10.43;8.40;;;;;;;;;;5051144;28;20206;-33
2023/05/08 13:49:42;;;;;;;12.40;8.60;;;;;;;;;;5044400;28;20234;-34
2023/05/08 13:52:10;;;;;;;10.63;8.97;;;;;;;;;;5048701;28;20218;-31
2023/05/08 13:54:37;;;;;;;8.77;7.87;;;;;;;;;;5049720;28;20204;-33
2023/05/08 13:57:04;;;;;;;14.70;7.90;;;;;;;;;;5050142;28;20224;-31
2023/05/08 13:59:32;;;;;;;8.47;7.60;;;;;;;;;;5047086;28;20289;-33
2023/05/08 14:01:59;;;;;;;8.83;7.47;;;;;;;;;;5043259;28;20253;-32
2023/05/08 14:04:26;;;;;;;7.60;6.70;;;;;;;;;;5042360;28;20211;-29
2023/05/08 14:06:55;;;;;;;8.67;7.77;;;;;;;;;;5050280;28;20222;-32
2023/05/08 14:09:23;;;;;;;9.10;8.17;;;;;;;;;;5049636;28;20245;-34
2023/05/08 14:11:50;;;;;;;8.20;7.13;;;;;;;;;;5045500;28;20207;-33
2023/05/08 14:14:17;;;;;;;9.33;8.33;;;;;;;;;;5044896;28;20207;-33
2023/05/08 14:16:44;;;;;;;9.43;7.43;;;;;;;;;;5045210;28;20232;-33
2023/05/08 14:19:11;;;;;;;8.23;7.37;;;;;;;;;;5051361;28;20199;-32
2023/05/08 14:21:39;;;;;;;9.57;8.33;;;;;;;;;;5051996;28;20202;-31
2023/05/08 14:24:08;;;;;;;9.93;8.83;;;;;;;;;;5048911;28;20619;-34
2023/05/08 14:26:35;;;;;;;10.57;7.80;;;;;;;;;;5045224;28;20233;-35
2023/05/08 14:29:02;;;;;;;9.40;8.43;;;;;;;;;;5047958;28;20223;-33
2023/05/08 14:31:29;;;;;;;9.50;8.50;;;;;;;;;;5046891;28;20203;-32
2023/05/08 14:33:56;;;;;;;9.80;8.80;;;;;;;;;;5042967;28;20205;-35
2023/05/08 14:36:24;;;;;;;9.30;8.37;;;;;;;;;;5051716;28;20223;-33
2023/05/08 14:38:51;;;;;;;9.23;8.27;;;;;;;;;;5048359;28;20199;-30
2023/05/08 14:41:20;;;;;;;10.03;8.63;;;;;;;;;;5042151;28;20208;-32
2023/05/08 14:43:49;;;;;;;9.03;8.07;;;;;;;;;;5033420;28;20272;-33
2023/05/08 14:46:16;;;;;;;10.80;8.77;;;;;;;;;;5045521;28;20226;-31
2023/05/08 14:48:43;;;;;;;9.70;8.63;;;;;;;;;;5045748;28;20199;-33
2023/05/08 14:51:12;;;;;;;8.83;7.93;;;;;;;;;;5051437;28;20558;-32
2023/05/08 14:53:40;;;;;;;10.10;8.97;;;;;;;;;;5039865;28;20206;-33